Otsu, Japan
Current Conditions -  °F | °C
As of 2:00 PM on Saturday 20 Dec 2014 (Local Time) from RJOO Reporting Station
Moderate Rain Moderate Rain  
Wind Chill: 38°   Ceiling: 5000
Heat Index: 45°   Visibility: 4mi
Dew Point: 43°   Wind: 15mph
Humidity: 93%   Direction: 70°ENE
Pressure: 29.77"   Gusts: NA
Location:  35.01°N, 135.87°E
Report Text: RJOO 200500Z 07013KT 6000 RA BR FEW008 SCT025 BKN050 07/06 Q1008
Loading
Personal Weather Stations






























Interactive Weather Map New forecast layout! Learn more

10-Day Weather Forecast

Advertisements
Track Severe Weather on mobile